TimeMST,TemperatureF,Dew PointF,Humidity,Sea Level PressureIn,VisibilityMPH,Wind Direction,Wind SpeedMPH,Gust SpeedMPH,PrecipitationIn,Events,Conditions,WindDirDegrees,DateUTC
12:53 AM,33.1,19.9,59,29.70,10.0,Calm,Calm,-,N/A,,Overcast,0,2013-01-08 07:53:00
1:53 AM,28.0,18.0,66,29.73,10.0,Calm,Calm,-,N/A,,Clear,0,2013-01-08 08:53:00
2:53 AM,30.0,19.0,64,29.76,10.0,West,5.8,-,N/A,,Mostly Cloudy,260,2013-01-08 09:53:00
3:53 AM,34.0,19.9,56,29.76,10.0,SW,4.6,-,N/A,,Overcast,220,2013-01-08 10:53:00
4:53 AM,35.1,17.1,48,29.78,10.0,Variable,6.9,-,N/A,,Overcast,0,2013-01-08 11:53:00
5:53 AM,35.1,15.1,44,29.80,10.0,NNW,8.1,-,N/A,,Scattered Clouds,330,2013-01-08 12:53:00
6:53 AM,35.1,16.0,46,29.83,10.0,WNW,6.9,-,N/A,,Overcast,290,2013-01-08 13:53:00
7:53 AM,30.9,15.1,52,29.86,10.0,WSW,5.8,-,N/A,,Mostly Cloudy,240,2013-01-08 14:53:00
8:53 AM,33.1,17.1,52,29.87,10.0,WSW,8.1,-,N/A,,Mostly Cloudy,250,2013-01-08 15:53:00
9:53 AM,39.0,17.1,41,29.87,10.0,WSW,3.5,-,N/A,,Mostly Cloudy,240,2013-01-08 16:53:00
10:53 AM,43.0,14.0,31,29.87,10.0,NW,12.7,24.2,N/A,,Clear,320,2013-01-08 17:53:00
12:53 PM,41.0,18.0,40,29.90,10.0,North,9.2,19.6,N/A,,Partly Cloudy,360,2013-01-08 19:53:00
1:53 PM,42.1,14.0,32,29.94,10.0,WNW,17.3,26.5,N/A,,Partly Cloudy,300,2013-01-08 20:53:00
2:53 PM,39.9,18.0,41,29.97,10.0,North,20.7,26.5,N/A,,Mostly Cloudy,350,2013-01-08 21:53:00
3:53 PM,37.0,17.1,44,29.99,10.0,North,20.7,34.5,N/A,,Clear,350,2013-01-08 22:53:00
4:53 PM,30.9,17.1,57,30.05,10.0,NNW,6.9,-,N/A,,Clear,330,2013-01-08 23:53:00
5:53 PM,33.1,12.9,43,30.07,10.0,NNW,10.4,23.0,N/A,,Clear,330,2013-01-09 00:53:00
6:53 PM,30.9,12.9,47,30.08,10.0,North,4.6,-,N/A,,Clear,350,2013-01-09 01:53:00
7:53 PM,28.0,12.0,51,30.11,10.0,South,3.5,-,N/A,,Clear,190,2013-01-09 02:53:00
8:53 PM,28.0,12.9,53,30.12,10.0,SSW,5.8,-,N/A,,Partly Cloudy,200,2013-01-09 03:53:00
9:53 PM,28.9,14.0,54,30.09,10.0,SSW,10.4,-,N/A,,Clear,200,2013-01-09 04:53:00
10:53 PM,25.0,12.0,58,30.08,10.0,South,5.8,-,N/A,,Clear,190,2013-01-09 05:53:00
11:53 PM,24.1,12.0,60,30.06,10.0,SE,3.5,-,N/A,,Clear,140,2013-01-09 06:53:00